PKNJT WAPP-WAPU
Flight info
| Callsign | PKNJT |
|---|---|
| Flight time | 0h 48m |
| Altitude | 14000 |
| Route | AMN |
| Aircraft | B58T/L-SDFGRY/C |
Departure
| Time | 2026-05-08 02:48 |
|---|---|
| Airport | Pattimura International Airport (WAPP) |
Arrival
| Time | 2026-05-08 03:36 |
|---|---|
| Airport | Kufar Airport (WAPU) |
| Time | Latitude | Longitude | Altitude | Speed | Heading |
|---|---|---|---|---|---|
| 2026-05-08 02:42 | -3.70607 | 128.09131 | 59 ft | 0 kts | 316° |
| 2026-05-08 02:45 | -3.70606 | 128.09131 | 59 ft | 2 kts | 320° |
| 2026-05-08 02:46 | -3.70623 | 128.09127 | 58 ft | 13 kts | 223° |
| 2026-05-08 02:46 | -3.70683 | 128.09075 | 58 ft | 14 kts | 220° |
| 2026-05-08 02:46 | -3.70742 | 128.09114 | 57 ft | 12 kts | 131° |
| 2026-05-08 02:46 | -3.70811 | 128.09180 | 57 ft | 14 kts | 187° |
| 2026-05-08 02:47 | -3.70883 | 128.09109 | 56 ft | 16 kts | 225° |
| 2026-05-08 02:47 | -3.71105 | 128.08890 | 54 ft | 82 kts | 225° |
| 2026-05-08 02:47 | -3.71613 | 128.08369 | 137 ft | 118 kts | 224° |
| 2026-05-08 02:47 | -3.72178 | 128.07745 | 515 ft | 127 kts | 226° |
| 2026-05-08 02:48 | -3.72740 | 128.07052 | 950 ft | 130 kts | 234° |
| 2026-05-08 02:48 | -3.73151 | 128.06269 | 1381 ft | 131 kts | 226° |
| 2026-05-08 02:48 | -3.73912 | 128.05653 | 1567 ft | 138 kts | 202° |
| 2026-05-08 02:48 | -3.74687 | 128.05300 | 2219 ft | 119 kts | 191° |
| 2026-05-08 02:49 | -3.75540 | 128.05086 | 2464 ft | 133 kts | 163° |
| 2026-05-08 02:49 | -3.75994 | 128.05824 | 2390 ft | 156 kts | 70° |
| 2026-05-08 02:49 | -3.75144 | 128.06459 | 2947 ft | 148 kts | 27° |
| 2026-05-08 02:49 | -3.74192 | 128.06568 | 3630 ft | 137 kts | 1° |
| 2026-05-08 02:50 | -3.73190 | 128.06526 | 3870 ft | 152 kts | 7° |
| 2026-05-08 02:50 | -3.72111 | 128.06550 | 4138 ft | 161 kts | 9° |
| 2026-05-08 02:50 | -3.70960 | 128.06607 | 4410 ft | 169 kts | 10° |
| 2026-05-08 02:50 | -3.69764 | 128.06678 | 4643 ft | 174 kts | 11° |
| 2026-05-08 02:51 | -3.68564 | 128.06846 | 4871 ft | 174 kts | 17° |
| 2026-05-08 02:51 | -3.67369 | 128.07088 | 5115 ft | 176 kts | 18° |
| 2026-05-08 02:51 | -3.66166 | 128.07372 | 5358 ft | 179 kts | 19° |
| 2026-05-08 02:51 | -3.64959 | 128.07678 | 5611 ft | 180 kts | 20° |
| 2026-05-08 02:52 | -3.63744 | 128.07998 | 5851 ft | 181 kts | 20° |
| 2026-05-08 02:52 | -3.62522 | 128.08321 | 6094 ft | 182 kts | 20° |
| 2026-05-08 02:52 | -3.61294 | 128.08658 | 6329 ft | 183 kts | 19° |
| 2026-05-08 02:52 | -3.60064 | 128.09002 | 6545 ft | 182 kts | 23° |
| 2026-05-08 02:53 | -3.59158 | 128.09784 | 6772 ft | 173 kts | 66° |
| 2026-05-08 02:53 | -3.59093 | 128.10944 | 7006 ft | 170 kts | 108° |
| 2026-05-08 02:53 | -3.59540 | 128.12040 | 7238 ft | 171 kts | 115° |
| 2026-05-08 02:53 | -3.60057 | 128.13096 | 7474 ft | 171 kts | 116° |
| 2026-05-08 02:54 | -3.60607 | 128.14148 | 7711 ft | 169 kts | 117° |
| 2026-05-08 02:54 | -3.61165 | 128.15177 | 7951 ft | 167 kts | 117° |
| 2026-05-08 02:54 | -3.61732 | 128.16210 | 8194 ft | 167 kts | 117° |
| 2026-05-08 02:54 | -3.62286 | 128.17206 | 8437 ft | 166 kts | 117° |
| 2026-05-08 02:55 | -3.62848 | 128.18208 | 8681 ft | 165 kts | 118° |
| 2026-05-08 02:55 | -3.62993 | 128.20327 | 9177 ft | 168 kts | 50° |
| 2026-05-08 02:55 | -3.62012 | 128.20988 | 9439 ft | 172 kts | 31° |
| 2026-05-08 02:56 | -3.61163 | 128.21784 | 9691 ft | 168 kts | 69° |
| 2026-05-08 02:56 | -3.60961 | 128.22924 | 9927 ft | 168 kts | 87° |
| 2026-05-08 02:56 | -3.60948 | 128.24100 | 10155 ft | 170 kts | 91° |
| 2026-05-08 02:56 | -3.60970 | 128.25289 | 10384 ft | 172 kts | 90° |
| 2026-05-08 02:57 | -3.60950 | 128.26488 | 10606 ft | 173 kts | 88° |
| 2026-05-08 02:57 | -3.60874 | 128.27690 | 10836 ft | 173 kts | 85° |
| 2026-05-08 02:57 | -3.60774 | 128.28898 | 11070 ft | 174 kts | 85° |
| 2026-05-08 02:57 | -3.60676 | 128.30096 | 11300 ft | 175 kts | 85° |
| 2026-05-08 02:58 | -3.60593 | 128.31316 | 11539 ft | 176 kts | 86° |
| 2026-05-08 02:58 | -3.60515 | 128.32545 | 11781 ft | 177 kts | 85° |
| 2026-05-08 02:58 | -3.60433 | 128.33774 | 12026 ft | 178 kts | 85° |
| 2026-05-08 02:58 | -3.60345 | 128.35012 | 12263 ft | 179 kts | 85° |
| 2026-05-08 02:59 | -3.60253 | 128.36259 | 12508 ft | 180 kts | 84° |
| 2026-05-08 02:59 | -3.60158 | 128.37509 | 12753 ft | 180 kts | 85° |
| 2026-05-08 02:59 | -3.60058 | 128.38763 | 13003 ft | 181 kts | 84° |
| 2026-05-08 02:59 | -3.59953 | 128.40019 | 13253 ft | 181 kts | 84° |
| 2026-05-08 03:00 | -3.59846 | 128.41280 | 13505 ft | 182 kts | 84° |
| 2026-05-08 03:00 | -3.59735 | 128.42549 | 13750 ft | 183 kts | 83° |
| 2026-05-08 03:00 | -3.59619 | 128.43820 | 13975 ft | 184 kts | 82° |
| 2026-05-08 03:00 | -3.59498 | 128.45097 | 14198 ft | 184 kts | 83° |
| 2026-05-08 03:01 | -3.59374 | 128.46357 | 14421 ft | 185 kts | 83° |
| 2026-05-08 03:01 | -3.59245 | 128.47638 | 14638 ft | 186 kts | 83° |
| 2026-05-08 03:01 | -3.59110 | 128.48947 | 14761 ft | 193 kts | 82° |
| 2026-05-08 03:01 | -3.58963 | 128.50313 | 14817 ft | 201 kts | 82° |
| 2026-05-08 03:02 | -3.58859 | 128.51262 | 14843 ft | 206 kts | 82° |
| 2026-05-08 03:02 | -3.58697 | 128.52713 | 14859 ft | 213 kts | 82° |
| 2026-05-08 03:02 | -3.58530 | 128.54189 | 14867 ft | 218 kts | 82° |
| 2026-05-08 03:02 | -3.58356 | 128.55707 | 14870 ft | 221 kts | 82° |
| 2026-05-08 03:03 | -3.58178 | 128.57243 | 14871 ft | 223 kts | 82° |
| 2026-05-08 03:03 | -3.58014 | 128.58793 | 14872 ft | 225 kts | 86° |
| 2026-05-08 03:03 | -3.58030 | 128.60366 | 14873 ft | 227 kts | 91° |
| 2026-05-08 03:03 | -3.58091 | 128.61947 | 14874 ft | 228 kts | 90° |
| 2026-05-08 03:04 | -3.58135 | 128.63535 | 14875 ft | 229 kts | 90° |
| 2026-05-08 03:04 | -3.58170 | 128.65133 | 14878 ft | 229 kts | 90° |
| 2026-05-08 03:04 | -3.58141 | 128.66727 | 14876 ft | 230 kts | 86° |
| 2026-05-08 03:04 | -3.58036 | 128.68325 | 14876 ft | 229 kts | 84° |
| 2026-05-08 03:05 | -3.57898 | 128.69915 | 14877 ft | 229 kts | 84° |
| 2026-05-08 03:05 | -3.57773 | 128.71507 | 14879 ft | 230 kts | 84° |
| 2026-05-08 03:05 | -3.57675 | 128.73101 | 14879 ft | 230 kts | 85° |
| 2026-05-08 03:05 | -3.57578 | 128.74700 | 14878 ft | 230 kts | 84° |
| 2026-05-08 03:06 | -3.57469 | 128.76281 | 14877 ft | 230 kts | 84° |
| 2026-05-08 03:06 | -3.57349 | 128.77878 | 14877 ft | 230 kts | 84° |
| 2026-05-08 03:06 | -3.57235 | 128.79477 | 14879 ft | 230 kts | 84° |
| 2026-05-08 03:06 | -3.57123 | 128.81072 | 14882 ft | 231 kts | 85° |
| 2026-05-08 03:07 | -3.57010 | 128.82679 | 14880 ft | 231 kts | 84° |
| 2026-05-08 03:07 | -3.56897 | 128.84286 | 14875 ft | 232 kts | 85° |
| 2026-05-08 03:07 | -3.56791 | 128.85894 | 14873 ft | 231 kts | 84° |
| 2026-05-08 03:07 | -3.56682 | 128.87499 | 14873 ft | 231 kts | 84° |
| 2026-05-08 03:08 | -3.56561 | 128.89101 | 14871 ft | 231 kts | 84° |
| 2026-05-08 03:08 | -3.56447 | 128.90703 | 14872 ft | 231 kts | 85° |
| 2026-05-08 03:08 | -3.56338 | 128.92311 | 14872 ft | 230 kts | 84° |
| 2026-05-08 03:08 | -3.56233 | 128.93907 | 14873 ft | 230 kts | 84° |
| 2026-05-08 03:09 | -3.56118 | 128.95509 | 14874 ft | 230 kts | 84° |
| 2026-05-08 03:09 | -3.56000 | 128.97111 | 14873 ft | 230 kts | 85° |
| 2026-05-08 03:09 | -3.55895 | 128.98710 | 14874 ft | 230 kts | 84° |
| 2026-05-08 03:09 | -3.55783 | 129.00308 | 14874 ft | 230 kts | 85° |
| 2026-05-08 03:10 | -3.55667 | 129.01907 | 14873 ft | 230 kts | 83° |
| 2026-05-08 03:10 | -3.55554 | 129.03493 | 14877 ft | 230 kts | 85° |
| 2026-05-08 03:10 | -3.55445 | 129.05092 | 14877 ft | 230 kts | 84° |
| 2026-05-08 03:10 | -3.55333 | 129.06692 | 14877 ft | 230 kts | 84° |
| 2026-05-08 03:11 | -3.55220 | 129.08287 | 14878 ft | 230 kts | 84° |
| 2026-05-08 03:11 | -3.55111 | 129.09887 | 14879 ft | 230 kts | 84° |
| 2026-05-08 03:11 | -3.55006 | 129.11464 | 14879 ft | 230 kts | 84° |
| 2026-05-08 03:11 | -3.54890 | 129.13064 | 14878 ft | 230 kts | 84° |
| 2026-05-08 03:12 | -3.54772 | 129.14660 | 14880 ft | 230 kts | 84° |
| 2026-05-08 03:12 | -3.54663 | 129.16256 | 14882 ft | 230 kts | 84° |
| 2026-05-08 03:12 | -3.54558 | 129.17857 | 14881 ft | 230 kts | 84° |
| 2026-05-08 03:12 | -3.54443 | 129.19456 | 14881 ft | 230 kts | 83° |
| 2026-05-08 03:13 | -3.54328 | 129.21052 | 14880 ft | 230 kts | 84° |
| 2026-05-08 03:13 | -3.54216 | 129.22644 | 14883 ft | 230 kts | 84° |
| 2026-05-08 03:13 | -3.54109 | 129.24243 | 14884 ft | 230 kts | 84° |
| 2026-05-08 03:13 | -3.53994 | 129.25837 | 14884 ft | 229 kts | 84° |
| 2026-05-08 03:14 | -3.53881 | 129.27413 | 14884 ft | 230 kts | 84° |
| 2026-05-08 03:14 | -3.53776 | 129.29008 | 14884 ft | 230 kts | 85° |
| 2026-05-08 03:14 | -3.53665 | 129.30604 | 14884 ft | 230 kts | 84° |
| 2026-05-08 03:14 | -3.53549 | 129.32199 | 14886 ft | 230 kts | 84° |
| 2026-05-08 03:15 | -3.53436 | 129.33797 | 14884 ft | 230 kts | 84° |
| 2026-05-08 03:15 | -3.53329 | 129.35395 | 14881 ft | 229 kts | 84° |
| 2026-05-08 03:15 | -3.53214 | 129.36987 | 14885 ft | 229 kts | 84° |
| 2026-05-08 03:15 | -3.53102 | 129.38581 | 14886 ft | 230 kts | 85° |
| 2026-05-08 03:16 | -3.52991 | 129.40176 | 14893 ft | 230 kts | 85° |
| 2026-05-08 03:16 | -3.52887 | 129.41774 | 14892 ft | 230 kts | 85° |
| 2026-05-08 03:16 | -3.52775 | 129.43370 | 14891 ft | 230 kts | 83° |
| 2026-05-08 03:16 | -3.52654 | 129.44968 | 14892 ft | 230 kts | 84° |
| 2026-05-08 03:17 | -3.52540 | 129.46561 | 14897 ft | 230 kts | 85° |
| 2026-05-08 03:17 | -3.52436 | 129.48149 | 14909 ft | 232 kts | 85° |
| 2026-05-08 03:17 | -3.52328 | 129.49765 | 14891 ft | 233 kts | 84° |
| 2026-05-08 03:17 | -3.52210 | 129.51378 | 14885 ft | 232 kts | 84° |
| 2026-05-08 03:18 | -3.52093 | 129.52990 | 14886 ft | 231 kts | 84° |
| 2026-05-08 03:18 | -3.51987 | 129.54596 | 14889 ft | 231 kts | 85° |
| 2026-05-08 03:18 | -3.51876 | 129.56195 | 14890 ft | 231 kts | 84° |
| 2026-05-08 03:18 | -3.51760 | 129.57794 | 14890 ft | 230 kts | 84° |
| 2026-05-08 03:19 | -3.51645 | 129.59394 | 14893 ft | 231 kts | 84° |
| 2026-05-08 03:19 | -3.51537 | 129.61000 | 14892 ft | 231 kts | 84° |
| 2026-05-08 03:19 | -3.51427 | 129.62606 | 14889 ft | 231 kts | 84° |
| 2026-05-08 03:19 | -3.51225 | 129.65419 | 14907 ft | 233 kts | 84° |
| 2026-05-08 03:20 | -3.50772 | 129.71940 | 14880 ft | 234 kts | 84° |
| 2026-05-08 03:20 | -3.50320 | 129.78403 | 14882 ft | 232 kts | 85° |
| 2026-05-08 03:20 | -3.49867 | 129.84848 | 14885 ft | 233 kts | 85° |
| 2026-05-08 03:20 | -3.49418 | 129.91283 | 14877 ft | 232 kts | 85° |
| 2026-05-08 03:21 | -3.48968 | 129.97748 | 14874 ft | 233 kts | 84° |
| 2026-05-08 03:21 | -3.48713 | 130.01354 | 14873 ft | 233 kts | 85° |
| 2026-05-08 03:21 | -3.48601 | 130.02973 | 14874 ft | 233 kts | 85° |
| 2026-05-08 03:21 | -3.48493 | 130.04569 | 14875 ft | 233 kts | 85° |
| 2026-05-08 03:22 | -3.48377 | 130.06183 | 14874 ft | 232 kts | 85° |
| 2026-05-08 03:22 | -3.48260 | 130.07795 | 14874 ft | 232 kts | 85° |
| 2026-05-08 03:22 | -3.48149 | 130.09433 | 14689 ft | 241 kts | 85° |
| 2026-05-08 03:22 | -3.48039 | 130.11091 | 14458 ft | 237 kts | 85° |
| 2026-05-08 03:23 | -3.47922 | 130.12729 | 14229 ft | 234 kts | 84° |
| 2026-05-08 03:23 | -3.47803 | 130.14343 | 14004 ft | 232 kts | 85° |
| 2026-05-08 03:23 | -3.47692 | 130.15944 | 13774 ft | 230 kts | 85° |
| 2026-05-08 03:23 | -3.47585 | 130.17537 | 13479 ft | 227 kts | 85° |
| 2026-05-08 03:24 | -3.47476 | 130.19094 | 13172 ft | 223 kts | 85° |
| 2026-05-08 03:24 | -3.47366 | 130.20630 | 12872 ft | 220 kts | 85° |
| 2026-05-08 03:24 | -3.47259 | 130.22149 | 12573 ft | 218 kts | 85° |
| 2026-05-08 03:24 | -3.47155 | 130.23654 | 12284 ft | 216 kts | 85° |
| 2026-05-08 03:25 | -3.47051 | 130.25150 | 11990 ft | 214 kts | 85° |
| 2026-05-08 03:25 | -3.46946 | 130.26628 | 11702 ft | 213 kts | 86° |
| 2026-05-08 03:25 | -3.46844 | 130.28100 | 11436 ft | 210 kts | 86° |
| 2026-05-08 03:25 | -3.46743 | 130.29557 | 11174 ft | 208 kts | 86° |
| 2026-05-08 03:26 | -3.46644 | 130.30994 | 10912 ft | 207 kts | 86° |
| 2026-05-08 03:26 | -3.46545 | 130.32406 | 10664 ft | 206 kts | 86° |
| 2026-05-08 03:26 | -3.46444 | 130.33833 | 10412 ft | 205 kts | 86° |
| 2026-05-08 03:26 | -3.46342 | 130.35252 | 10160 ft | 204 kts | 86° |
| 2026-05-08 03:27 | -3.46239 | 130.36665 | 9909 ft | 203 kts | 86° |
| 2026-05-08 03:27 | -3.46136 | 130.38073 | 9651 ft | 203 kts | 86° |
| 2026-05-08 03:27 | -3.46032 | 130.39479 | 9370 ft | 202 kts | 87° |
| 2026-05-08 03:27 | -3.45929 | 130.40876 | 9096 ft | 200 kts | 87° |
| 2026-05-08 03:28 | -3.45826 | 130.42261 | 8818 ft | 199 kts | 87° |
| 2026-05-08 03:28 | -3.45723 | 130.43635 | 8545 ft | 197 kts | 87° |
| 2026-05-08 03:28 | -3.45619 | 130.44998 | 8275 ft | 196 kts | 88° |
| 2026-05-08 03:28 | -3.45512 | 130.46349 | 8013 ft | 194 kts | 88° |
| 2026-05-08 03:29 | -3.45403 | 130.47686 | 7751 ft | 191 kts | 88° |
| 2026-05-08 03:29 | -3.45294 | 130.49009 | 7486 ft | 189 kts | 89° |
| 2026-05-08 03:29 | -3.45183 | 130.50321 | 7231 ft | 189 kts | 87° |
| 2026-05-08 03:29 | -3.45075 | 130.51628 | 6976 ft | 188 kts | 89° |
| 2026-05-08 03:30 | -3.44849 | 130.54209 | 6459 ft | 184 kts | 88° |
| 2026-05-08 03:30 | -3.44626 | 130.56749 | 5929 ft | 182 kts | 88° |
| 2026-05-08 03:31 | -3.44406 | 130.59241 | 5391 ft | 180 kts | 89° |
| 2026-05-08 03:31 | -3.44184 | 130.61723 | 4879 ft | 179 kts | 88° |
| 2026-05-08 03:32 | -3.44072 | 130.62963 | 4615 ft | 178 kts | 89° |
| 2026-05-08 03:32 | -3.43962 | 130.64201 | 4357 ft | 178 kts | 89° |
| 2026-05-08 03:32 | -3.43852 | 130.65432 | 4094 ft | 177 kts | 89° |
| 2026-05-08 03:32 | -3.43741 | 130.66655 | 3815 ft | 177 kts | 90° |
| 2026-05-08 03:33 | -3.43629 | 130.67876 | 3538 ft | 175 kts | 90° |
| 2026-05-08 03:33 | -3.43516 | 130.69089 | 3285 ft | 175 kts | 88° |
| 2026-05-08 03:33 | -3.43399 | 130.70298 | 3018 ft | 173 kts | 88° |
| 2026-05-08 03:33 | -3.43286 | 130.71488 | 2738 ft | 170 kts | 90° |
| 2026-05-08 03:34 | -3.43174 | 130.72659 | 2474 ft | 168 kts | 90° |
| 2026-05-08 03:34 | -3.43060 | 130.73797 | 2186 ft | 157 kts | 89° |
| 2026-05-08 03:34 | -3.43100 | 130.74853 | 1714 ft | 149 kts | 108° |
| 2026-05-08 03:34 | -3.43466 | 130.75800 | 1213 ft | 144 kts | 121° |
| 2026-05-08 03:35 | -3.43991 | 130.76599 | 794 ft | 138 kts | 131° |
| 2026-05-08 03:35 | -3.44589 | 130.77335 | 565 ft | 130 kts | 136° |
| 2026-05-08 03:35 | -3.45168 | 130.77918 | 384 ft | 112 kts | 140° |
| 2026-05-08 03:35 | -3.45718 | 130.78468 | 175 ft | 110 kts | 133° |
| 2026-05-08 03:36 | -3.46204 | 130.79002 | 33 ft | 86 kts | 131° |
| 2026-05-08 03:36 | -3.46475 | 130.79318 | 22 ft | 18 kts | 130° |
| 2026-05-08 03:36 | -3.46507 | 130.79361 | 20 ft | 6 kts | 309° |
| 2026-05-08 03:36 | -3.46465 | 130.79308 | 22 ft | 14 kts | 311° |
| 2026-05-08 03:37 | -3.46386 | 130.79208 | 25 ft | 22 kts | 303° |
| 2026-05-08 03:37 | -3.46272 | 130.79072 | 29 ft | 27 kts | 320° |
| 2026-05-08 03:37 | -3.46181 | 130.78976 | 28 ft | 6 kts | 193° |
| 2026-05-08 03:37 | -3.46207 | 130.78981 | 29 ft | 4 kts | 169° |
| 2026-05-08 03:38 | -3.46259 | 130.78948 | 25 ft | 14 kts | 220° |
| 2026-05-08 03:38 | -3.46327 | 130.78896 | 26 ft | 9 kts | 215° |
| 2026-05-08 03:38 | -3.46367 | 130.78868 | 25 ft | 6 kts | 214° |
| 2026-05-08 03:38 | -3.46371 | 130.78865 | 25 ft | 0 kts | 215° |